sensor_id;sensor_type;location;lat;lon;timestamp;P1;durP1;ratioP1;P2;durP2;ratioP2
25155;SDS011;21913;52.456;13.634;2023-04-24T00:01:24;1.55;;;1.27;;
25155;SDS011;21913;52.456;13.634;2023-04-24T00:06:25;2.13;;;1.15;;
25155;SDS011;21913;52.456;13.634;2023-04-24T00:11:27;1.30;;;1.10;;
25155;SDS011;21913;52.456;13.634;2023-04-24T00:16:29;1.70;;;1.15;;
25155;SDS011;21913;52.456;13.634;2023-04-24T00:21:30;1.30;;;1.10;;
25155;SDS011;21913;52.456;13.634;2023-04-24T00:26:32;2.17;;;1.10;;
25155;SDS011;21913;52.456;13.634;2023-04-24T00:31:33;1.20;;;1.00;;
25155;SDS011;21913;52.456;13.634;2023-04-24T00:36:35;1.38;;;1.20;;
25155;SDS011;21913;52.456;13.634;2023-04-24T00:41:36;1.73;;;1.27;;
25155;SDS011;21913;52.456;13.634;2023-04-24T00:46:38;1.70;;;1.10;;
25155;SDS011;21913;52.456;13.634;2023-04-24T00:51:39;1.48;;;1.17;;
25155;SDS011;21913;52.456;13.634;2023-04-24T00:56:41;1.17;;;0.90;;
25155;SDS011;21913;52.456;13.634;2023-04-24T01:01:44;1.00;;;0.90;;
25155;SDS011;21913;52.456;13.634;2023-04-24T01:06:46;1.55;;;1.08;;
25155;SDS011;21913;52.456;13.634;2023-04-24T01:11:50;1.65;;;1.30;;
25155;SDS011;21913;52.456;13.634;2023-04-24T01:16:51;1.10;;;1.00;;
25155;SDS011;21913;52.456;13.634;2023-04-24T01:21:54;2.03;;;1.27;;
25155;SDS011;21913;52.456;13.634;2023-04-24T01:26:59;1.45;;;1.20;;
25155;SDS011;21913;52.456;13.634;2023-04-24T01:32:01;0.80;;;0.73;;
25155;SDS011;21913;52.456;13.634;2023-04-24T01:37:04;1.25;;;0.90;;
25155;SDS011;21913;52.456;13.634;2023-04-24T01:42:05;1.27;;;1.05;;
25155;SDS011;21913;52.456;13.634;2023-04-24T01:47:07;1.00;;;0.77;;
25155;SDS011;21913;52.456;13.634;2023-04-24T01:52:08;1.38;;;1.00;;
25155;SDS011;21913;52.456;13.634;2023-04-24T01:57:10;1.00;;;0.90;;
25155;SDS011;21913;52.456;13.634;2023-04-24T02:02:11;2.15;;;1.00;;
25155;SDS011;21913;52.456;13.634;2023-04-24T02:07:13;1.13;;;0.80;;
25155;SDS011;21913;52.456;13.634;2023-04-24T02:12:15;1.85;;;1.10;;
25155;SDS011;21913;52.456;13.634;2023-04-24T02:17:18;2.00;;;1.10;;
25155;SDS011;21913;52.456;13.634;2023-04-24T02:22:19;1.30;;;0.88;;
25155;SDS011;21913;52.456;13.634;2023-04-24T02:27:20;1.00;;;0.90;;
25155;SDS011;21913;52.456;13.634;2023-04-24T02:32:22;1.85;;;0.90;;
25155;SDS011;21913;52.456;13.634;2023-04-24T02:37:23;2.55;;;1.13;;
25155;SDS011;21913;52.456;13.634;2023-04-24T02:42:25;1.73;;;1.00;;
25155;SDS011;21913;52.456;13.634;2023-04-24T02:47:26;1.00;;;0.90;;
25155;SDS011;21913;52.456;13.634;2023-04-24T02:52:28;1.15;;;0.90;;
25155;SDS011;21913;52.456;13.634;2023-04-24T02:57:30;1.70;;;1.10;;
25155;SDS011;21913;52.456;13.634;2023-04-24T03:02:31;1.20;;;0.90;;
25155;SDS011;21913;52.456;13.634;2023-04-24T03:07:33;1.15;;;0.90;;
25155;SDS011;21913;52.456;13.634;2023-04-24T03:12:34;1.25;;;0.90;;
25155;SDS011;21913;52.456;13.634;2023-04-24T03:17:36;1.17;;;0.68;;
25155;SDS011;21913;52.456;13.634;2023-04-24T03:22:37;1.20;;;0.93;;
25155;SDS011;21913;52.456;13.634;2023-04-24T03:27:41;1.65;;;1.00;;
25155;SDS011;21913;52.456;13.634;2023-04-24T03:32:53;1.42;;;1.08;;
25155;SDS011;21913;52.456;13.634;2023-04-24T03:37:59;1.15;;;0.70;;
25155;SDS011;21913;52.456;13.634;2023-04-24T03:43:20;1.25;;;1.00;;
25155;SDS011;21913;52.456;13.634;2023-04-24T03:48:22;1.55;;;0.90;;
25155;SDS011;21913;52.456;13.634;2023-04-24T03:53:24;1.15;;;0.90;;
25155;SDS011;21913;52.456;13.634;2023-04-24T03:58:26;1.42;;;0.88;;
25155;SDS011;21913;52.456;13.634;2023-04-24T04:03:29;1.45;;;1.05;;
25155;SDS011;21913;52.456;13.634;2023-04-24T04:08:31;1.25;;;0.90;;
25155;SDS011;21913;52.456;13.634;2023-04-24T04:13:32;1.10;;;0.80;;
25155;SDS011;21913;52.456;13.634;2023-04-24T04:18:34;1.60;;;1.00;;
25155;SDS011;21913;52.456;13.634;2023-04-24T04:23:37;1.30;;;1.08;;
25155;SDS011;21913;52.456;13.634;2023-04-24T04:28:45;1.25;;;1.00;;
25155;SDS011;21913;52.456;13.634;2023-04-24T04:33:47;1.30;;;1.00;;
25155;SDS011;21913;52.456;13.634;2023-04-24T04:38:49;2.08;;;1.10;;
25155;SDS011;21913;52.456;13.634;2023-04-24T04:44:13;1.50;;;1.23;;
25155;SDS011;21913;52.456;13.634;2023-04-24T04:49:16;1.30;;;1.15;;
25155;SDS011;21913;52.456;13.634;2023-04-24T04:54:19;2.10;;;1.50;;
25155;SDS011;21913;52.456;13.634;2023-04-24T04:59:20;1.50;;;1.20;;
25155;SDS011;21913;52.456;13.634;2023-04-24T05:04:25;2.00;;;1.50;;
25155;SDS011;21913;52.456;13.634;2023-04-24T05:09:27;1.88;;;1.67;;
25155;SDS011;21913;52.456;13.634;2023-04-24T05:14:34;3.22;;;1.35;;
25155;SDS011;21913;52.456;13.634;2023-04-24T05:19:36;1.67;;;1.50;;
25155;SDS011;21913;52.456;13.634;2023-04-24T05:24:38;2.13;;;1.42;;
25155;SDS011;21913;52.456;13.634;2023-04-24T05:29:47;1.88;;;1.50;;
25155;SDS011;21913;52.456;13.634;2023-04-24T05:34:48;2.15;;;1.67;;
25155;SDS011;21913;52.456;13.634;2023-04-24T05:39:50;2.47;;;1.75;;
25155;SDS011;21913;52.456;13.634;2023-04-24T05:44:52;2.28;;;1.80;;
25155;SDS011;21913;52.456;13.634;2023-04-24T05:49:54;2.80;;;1.90;;
25155;SDS011;21913;52.456;13.634;2023-04-24T05:54:55;2.38;;;1.70;;
25155;SDS011;21913;52.456;13.634;2023-04-24T06:00:00;2.78;;;1.80;;
25155;SDS011;21913;52.456;13.634;2023-04-24T06:05:03;2.20;;;1.92;;
25155;SDS011;21913;52.456;13.634;2023-04-24T06:10:05;2.72;;;1.98;;
25155;SDS011;21913;52.456;13.634;2023-04-24T06:15:14;2.22;;;1.83;;
25155;SDS011;21913;52.456;13.634;2023-04-24T06:20:31;3.25;;;1.90;;
25155;SDS011;21913;52.456;13.634;2023-04-24T06:25:33;2.75;;;1.92;;
25155;SDS011;21913;52.456;13.634;2023-04-24T06:30:34;2.45;;;2.00;;
25155;SDS011;21913;52.456;13.634;2023-04-24T06:35:36;2.60;;;1.85;;
25155;SDS011;21913;52.456;13.634;2023-04-24T06:40:37;3.38;;;2.20;;
25155;SDS011;21913;52.456;13.634;2023-04-24T06:45:39;2.53;;;2.00;;
25155;SDS011;21913;52.456;13.634;2023-04-24T06:50:41;2.65;;;2.13;;
25155;SDS011;21913;52.456;13.634;2023-04-24T06:55:42;2.90;;;2.58;;
25155;SDS011;21913;52.456;13.634;2023-04-24T07:00:44;3.78;;;2.40;;
25155;SDS011;21913;52.456;13.634;2023-04-24T07:05:46;3.53;;;2.53;;
25155;SDS011;21913;52.456;13.634;2023-04-24T07:10:48;2.83;;;2.08;;
25155;SDS011;21913;52.456;13.634;2023-04-24T07:15:50;2.90;;;2.22;;
25155;SDS011;21913;52.456;13.634;2023-04-24T07:20:52;5.15;;;3.70;;
25155;SDS011;21913;52.456;13.634;2023-04-24T07:25:53;7.05;;;4.80;;
25155;SDS011;21913;52.456;13.634;2023-04-24T07:30:55;6.88;;;5.13;;
25155;SDS011;21913;52.456;13.634;2023-04-24T07:35:56;7.03;;;4.63;;
25155;SDS011;21913;52.456;13.634;2023-04-24T07:40:58;8.02;;;4.82;;
25155;SDS011;21913;52.456;13.634;2023-04-24T07:45:59;7.35;;;4.97;;
25155;SDS011;21913;52.456;13.634;2023-04-24T07:51:01;8.07;;;5.30;;
25155;SDS011;21913;52.456;13.634;2023-04-24T07:56:03;5.90;;;4.30;;
25155;SDS011;21913;52.456;13.634;2023-04-24T08:01:04;6.18;;;4.00;;
25155;SDS011;21913;52.456;13.634;2023-04-24T08:06:06;5.20;;;3.88;;
25155;SDS011;21913;52.456;13.634;2023-04-24T08:11:07;6.57;;;3.90;;
25155;SDS011;21913;52.456;13.634;2023-04-24T08:16:09;5.07;;;3.83;;
25155;SDS011;21913;52.456;13.634;2023-04-24T08:21:10;5.75;;;3.92;;
25155;SDS011;21913;52.456;13.634;2023-04-24T08:26:12;7.65;;;4.65;;
25155;SDS011;21913;52.456;13.634;2023-04-24T08:31:14;6.00;;;3.90;;
25155;SDS011;21913;52.456;13.634;2023-04-24T08:36:15;7.30;;;4.18;;
25155;SDS011;21913;52.456;13.634;2023-04-24T08:41:17;5.60;;;4.10;;
25155;SDS011;21913;52.456;13.634;2023-04-24T08:46:20;6.07;;;4.22;;
25155;SDS011;21913;52.456;13.634;2023-04-24T08:51:21;6.63;;;4.32;;
25155;SDS011;21913;52.456;13.634;2023-04-24T08:56:23;4.50;;;3.45;;
25155;SDS011;21913;52.456;13.634;2023-04-24T09:01:26;12.65;;;4.15;;
25155;SDS011;21913;52.456;13.634;2023-04-24T09:06:28;4.32;;;3.05;;
25155;SDS011;21913;52.456;13.634;2023-04-24T09:11:30;4.03;;;3.20;;
25155;SDS011;21913;52.456;13.634;2023-04-24T09:16:32;3.63;;;2.70;;
25155;SDS011;21913;52.456;13.634;2023-04-24T09:21:35;4.97;;;3.38;;
25155;SDS011;21913;52.456;13.634;2023-04-24T09:26:37;4.78;;;3.17;;
25155;SDS011;21913;52.456;13.634;2023-04-24T09:31:38;4.55;;;3.40;;
25155;SDS011;21913;52.456;13.634;2023-04-24T09:36:41;4.55;;;3.10;;
25155;SDS011;21913;52.456;13.634;2023-04-24T09:41:47;3.85;;;2.97;;
25155;SDS011;21913;52.456;13.634;2023-04-24T09:46:56;4.57;;;2.60;;
25155;SDS011;21913;52.456;13.634;2023-04-24T09:52:03;3.95;;;2.55;;
25155;SDS011;21913;52.456;13.634;2023-04-24T09:57:04;3.35;;;2.10;;
25155;SDS011;21913;52.456;13.634;2023-04-24T10:02:16;2.60;;;1.90;;
25155;SDS011;21913;52.456;13.634;2023-04-24T10:07:21;2.63;;;2.17;;
25155;SDS011;21913;52.456;13.634;2023-04-24T10:12:22;2.65;;;1.98;;
25155;SDS011;21913;52.456;13.634;2023-04-24T10:17:25;3.03;;;1.60;;
25155;SDS011;21913;52.456;13.634;2023-04-24T10:22:27;2.20;;;1.30;;
25155;SDS011;21913;52.456;13.634;2023-04-24T10:27:29;1.88;;;1.10;;
25155;SDS011;21913;52.456;13.634;2023-04-24T10:32:33;1.58;;;1.13;;
25155;SDS011;21913;52.456;13.634;2023-04-24T10:37:43;3.33;;;1.10;;
25155;SDS011;21913;52.456;13.634;2023-04-24T10:42:47;1.98;;;0.95;;
25155;SDS011;21913;52.456;13.634;2023-04-24T10:48:05;2.15;;;1.00;;
25155;SDS011;21913;52.456;13.634;2023-04-24T10:53:12;1.50;;;1.00;;
25155;SDS011;21913;52.456;13.634;2023-04-24T10:58:15;2.00;;;1.00;;
25155;SDS011;21913;52.456;13.634;2023-04-24T11:03:30;2.17;;;1.00;;
25155;SDS011;21913;52.456;13.634;2023-04-24T11:14:02;1.75;;;1.00;;
25155;SDS011;21913;52.456;13.634;2023-04-24T11:34:40;1.00;;;0.80;;
25155;SDS011;21913;52.456;13.634;2023-04-24T11:39:42;1.23;;;0.82;;
25155;SDS011;21913;52.456;13.634;2023-04-24T11:44:43;2.13;;;1.00;;
25155;SDS011;21913;52.456;13.634;2023-04-24T11:49:46;1.63;;;1.10;;
25155;SDS011;21913;52.456;13.634;2023-04-24T11:54:48;1.35;;;0.90;;
25155;SDS011;21913;52.456;13.634;2023-04-24T11:59:52;1.75;;;0.90;;
25155;SDS011;21913;52.456;13.634;2023-04-24T12:04:54;1.45;;;0.90;;
25155;SDS011;21913;52.456;13.634;2023-04-24T12:09:57;1.42;;;1.00;;
25155;SDS011;21913;52.456;13.634;2023-04-24T12:15:00;1.55;;;0.80;;
25155;SDS011;21913;52.456;13.634;2023-04-24T12:20:07;1.80;;;0.90;;
25155;SDS011;21913;52.456;13.634;2023-04-24T12:25:10;1.50;;;0.85;;
25155;SDS011;21913;52.456;13.634;2023-04-24T12:30:13;1.73;;;1.00;;
25155;SDS011;21913;52.456;13.634;2023-04-24T12:35:20;1.55;;;0.88;;
25155;SDS011;21913;52.456;13.634;2023-04-24T12:40:24;1.15;;;0.90;;
25155;SDS011;21913;52.456;13.634;2023-04-24T12:45:26;2.17;;;1.27;;
25155;SDS011;21913;52.456;13.634;2023-04-24T12:50:28;12.85;;;4.72;;
25155;SDS011;21913;52.456;13.634;2023-04-24T12:55:29;23.15;;;4.72;;
25155;SDS011;21913;52.456;13.634;2023-04-24T13:00:31;9.88;;;4.18;;
25155;SDS011;21913;52.456;13.634;2023-04-24T13:05:33;10.38;;;4.28;;
25155;SDS011;21913;52.456;13.634;2023-04-24T13:10:35;10.07;;;4.40;;
25155;SDS011;21913;52.456;13.634;2023-04-24T13:15:36;11.13;;;4.13;;
25155;SDS011;21913;52.456;13.634;2023-04-24T13:20:38;15.23;;;4.32;;
25155;SDS011;21913;52.456;13.634;2023-04-24T13:25:40;9.63;;;3.90;;
25155;SDS011;21913;52.456;13.634;2023-04-24T13:30:41;9.05;;;3.53;;
25155;SDS011;21913;52.456;13.634;2023-04-24T13:35:43;8.23;;;3.90;;
25155;SDS011;21913;52.456;13.634;2023-04-24T13:40:44;8.77;;;3.92;;
25155;SDS011;21913;52.456;13.634;2023-04-24T13:45:46;8.65;;;3.92;;
25155;SDS011;21913;52.456;13.634;2023-04-24T13:50:47;7.05;;;3.28;;
25155;SDS011;21913;52.456;13.634;2023-04-24T13:55:49;6.47;;;3.17;;
25155;SDS011;21913;52.456;13.634;2023-04-24T14:00:50;7.75;;;3.63;;
25155;SDS011;21913;52.456;13.634;2023-04-24T14:05:52;8.05;;;3.70;;
25155;SDS011;21913;52.456;13.634;2023-04-24T14:10:53;8.10;;;3.53;;
25155;SDS011;21913;52.456;13.634;2023-04-24T14:15:55;6.70;;;3.65;;
25155;SDS011;21913;52.456;13.634;2023-04-24T14:20:56;7.07;;;3.33;;
25155;SDS011;21913;52.456;13.634;2023-04-24T14:25:58;9.82;;;3.38;;
25155;SDS011;21913;52.456;13.634;2023-04-24T14:31:00;5.57;;;3.17;;
25155;SDS011;21913;52.456;13.634;2023-04-24T14:36:01;5.97;;;3.20;;
25155;SDS011;21913;52.456;13.634;2023-04-24T14:41:03;5.18;;;2.92;;
25155;SDS011;21913;52.456;13.634;2023-04-24T14:46:06;7.10;;;3.17;;
25155;SDS011;21913;52.456;13.634;2023-04-24T14:51:08;6.40;;;3.10;;
25155;SDS011;21913;52.456;13.634;2023-04-24T14:56:09;6.88;;;2.88;;
25155;SDS011;21913;52.456;13.634;2023-04-24T15:01:11;5.05;;;2.70;;
25155;SDS011;21913;52.456;13.634;2023-04-24T15:06:12;6.38;;;2.88;;
25155;SDS011;21913;52.456;13.634;2023-04-24T15:11:14;5.60;;;2.88;;
25155;SDS011;21913;52.456;13.634;2023-04-24T15:16:15;4.35;;;2.60;;
25155;SDS011;21913;52.456;13.634;2023-04-24T15:21:17;5.35;;;2.80;;
25155;SDS011;21913;52.456;13.634;2023-04-24T15:26:18;3.90;;;2.50;;
25155;SDS011;21913;52.456;13.634;2023-04-24T15:31:20;4.25;;;2.30;;
25155;SDS011;21913;52.456;13.634;2023-04-24T15:36:21;5.35;;;2.55;;
25155;SDS011;21913;52.456;13.634;2023-04-24T15:41:23;5.75;;;2.63;;
25155;SDS011;21913;52.456;13.634;2023-04-24T15:46:24;5.57;;;2.30;;
25155;SDS011;21913;52.456;13.634;2023-04-24T15:51:26;5.05;;;2.42;;
25155;SDS011;21913;52.456;13.634;2023-04-24T15:56:27;5.10;;;2.45;;
25155;SDS011;21913;52.456;13.634;2023-04-24T16:01:30;3.65;;;2.28;;
25155;SDS011;21913;52.456;13.634;2023-04-24T16:06:32;3.70;;;2.40;;
25155;SDS011;21913;52.456;13.634;2023-04-24T16:11:33;4.55;;;2.22;;
25155;SDS011;21913;52.456;13.634;2023-04-24T16:16:35;3.78;;;2.30;;
25155;SDS011;21913;52.456;13.634;2023-04-24T16:21:36;3.85;;;2.28;;
25155;SDS011;21913;52.456;13.634;2023-04-24T16:26:38;3.90;;;2.42;;
25155;SDS011;21913;52.456;13.634;2023-04-24T16:31:43;4.35;;;2.30;;
25155;SDS011;21913;52.456;13.634;2023-04-24T16:36:44;3.38;;;2.10;;
25155;SDS011;21913;52.456;13.634;2023-04-24T16:41:46;4.05;;;2.30;;
25155;SDS011;21913;52.456;13.634;2023-04-24T16:46:47;4.10;;;2.13;;
25155;SDS011;21913;52.456;13.634;2023-04-24T16:51:49;4.68;;;2.40;;
25155;SDS011;21913;52.456;13.634;2023-04-24T16:56:51;4.43;;;2.05;;
25155;SDS011;21913;52.456;13.634;2023-04-24T17:01:54;4.10;;;2.00;;
25155;SDS011;21913;52.456;13.634;2023-04-24T17:06:55;3.00;;;2.00;;
25155;SDS011;21913;52.456;13.634;2023-04-24T17:11:57;3.97;;;2.08;;
25155;SDS011;21913;52.456;13.634;2023-04-24T17:16:59;3.63;;;2.15;;
25155;SDS011;21913;52.456;13.634;2023-04-24T17:22:00;3.58;;;1.80;;
25155;SDS011;21913;52.456;13.634;2023-04-24T17:27:02;2.90;;;1.63;;
25155;SDS011;21913;52.456;13.634;2023-04-24T17:32:08;2.90;;;1.88;;
25155;SDS011;21913;52.456;13.634;2023-04-24T17:37:10;3.72;;;1.83;;
25155;SDS011;21913;52.456;13.634;2023-04-24T17:42:11;3.55;;;1.90;;
25155;SDS011;21913;52.456;13.634;2023-04-24T17:47:13;3.20;;;1.92;;
25155;SDS011;21913;52.456;13.634;2023-04-24T17:52:14;3.15;;;1.85;;
25155;SDS011;21913;52.456;13.634;2023-04-24T17:57:16;2.75;;;1.90;;
25155;SDS011;21913;52.456;13.634;2023-04-24T18:02:17;2.92;;;1.80;;
25155;SDS011;21913;52.456;13.634;2023-04-24T18:07:19;3.30;;;1.77;;
25155;SDS011;21913;52.456;13.634;2023-04-24T18:12:20;4.43;;;1.75;;
25155;SDS011;21913;52.456;13.634;2023-04-24T18:17:22;4.40;;;2.00;;
25155;SDS011;21913;52.456;13.634;2023-04-24T18:22:23;3.17;;;1.92;;
25155;SDS011;21913;52.456;13.634;2023-04-24T18:27:25;5.80;;;2.10;;
25155;SDS011;21913;52.456;13.634;2023-04-24T18:32:26;3.40;;;1.98;;
25155;SDS011;21913;52.456;13.634;2023-04-24T18:37:28;7.10;;;2.22;;
25155;SDS011;21913;52.456;13.634;2023-04-24T18:42:29;3.25;;;1.77;;
25155;SDS011;21913;52.456;13.634;2023-04-24T18:47:31;3.55;;;2.03;;
25155;SDS011;21913;52.456;13.634;2023-04-24T18:52:32;3.47;;;1.75;;
25155;SDS011;21913;52.456;13.634;2023-04-24T18:57:34;4.22;;;1.73;;
25155;SDS011;21913;52.456;13.634;2023-04-24T19:02:35;3.25;;;1.73;;
25155;SDS011;21913;52.456;13.634;2023-04-24T19:07:37;3.22;;;1.80;;
25155;SDS011;21913;52.456;13.634;2023-04-24T19:12:38;2.90;;;1.55;;
25155;SDS011;21913;52.456;13.634;2023-04-24T19:17:40;3.85;;;1.70;;
25155;SDS011;21913;52.456;13.634;2023-04-24T19:22:42;3.08;;;2.08;;
25155;SDS011;21913;52.456;13.634;2023-04-24T19:27:43;3.55;;;1.60;;
25155;SDS011;21913;52.456;13.634;2023-04-24T19:32:45;5.00;;;1.73;;
25155;SDS011;21913;52.456;13.634;2023-04-24T19:37:46;3.33;;;1.83;;
25155;SDS011;21913;52.456;13.634;2023-04-24T19:42:48;3.45;;;2.00;;
25155;SDS011;21913;52.456;13.634;2023-04-24T19:47:49;2.58;;;1.58;;
25155;SDS011;21913;52.456;13.634;2023-04-24T19:52:51;2.97;;;1.85;;
25155;SDS011;21913;52.456;13.634;2023-04-24T19:57:52;3.70;;;1.90;;
25155;SDS011;21913;52.456;13.634;2023-04-24T20:02:54;2.35;;;1.60;;
25155;SDS011;21913;52.456;13.634;2023-04-24T20:07:56;4.47;;;1.80;;
25155;SDS011;21913;52.456;13.634;2023-04-24T20:12:57;3.35;;;1.63;;
25155;SDS011;21913;52.456;13.634;2023-04-24T20:17:59;2.83;;;1.67;;
25155;SDS011;21913;52.456;13.634;2023-04-24T20:23:01;3.33;;;1.52;;
25155;SDS011;21913;52.456;13.634;2023-04-24T20:28:02;3.38;;;1.70;;
25155;SDS011;21913;52.456;13.634;2023-04-24T20:33:04;3.13;;;1.85;;
25155;SDS011;21913;52.456;13.634;2023-04-24T20:38:05;2.10;;;1.67;;
25155;SDS011;21913;52.456;13.634;2023-04-24T20:43:07;3.67;;;1.95;;
25155;SDS011;21913;52.456;13.634;2023-04-24T20:48:08;2.85;;;1.67;;
25155;SDS011;21913;52.456;13.634;2023-04-24T20:53:10;3.45;;;1.90;;
25155;SDS011;21913;52.456;13.634;2023-04-24T20:58:11;3.67;;;1.90;;
25155;SDS011;21913;52.456;13.634;2023-04-24T21:03:13;3.38;;;1.80;;
25155;SDS011;21913;52.456;13.634;2023-04-24T21:08:15;3.00;;;1.88;;
25155;SDS011;21913;52.456;13.634;2023-04-24T21:13:16;3.45;;;2.20;;
25155;SDS011;21913;52.456;13.634;2023-04-24T21:18:18;3.55;;;2.10;;
25155;SDS011;21913;52.456;13.634;2023-04-24T21:23:19;2.92;;;2.00;;
25155;SDS011;21913;52.456;13.634;2023-04-24T21:28:21;3.45;;;1.90;;
25155;SDS011;21913;52.456;13.634;2023-04-24T21:33:23;4.57;;;2.08;;
25155;SDS011;21913;52.456;13.634;2023-04-24T21:38:24;3.67;;;2.13;;
25155;SDS011;21913;52.456;13.634;2023-04-24T21:43:26;3.47;;;2.10;;
25155;SDS011;21913;52.456;13.634;2023-04-24T21:48:31;4.30;;;1.90;;
25155;SDS011;21913;52.456;13.634;2023-04-24T21:53:32;3.38;;;2.10;;
25155;SDS011;21913;52.456;13.634;2023-04-24T21:58:34;3.63;;;2.00;;
25155;SDS011;21913;52.456;13.634;2023-04-24T22:03:36;4.35;;;2.00;;
25155;SDS011;21913;52.456;13.634;2023-04-24T22:08:38;3.00;;;1.90;;
25155;SDS011;21913;52.456;13.634;2023-04-24T22:13:39;3.38;;;2.03;;
25155;SDS011;21913;52.456;13.634;2023-04-24T22:18:41;3.40;;;2.20;;
25155;SDS011;21913;52.456;13.634;2023-04-24T22:23:46;4.05;;;2.00;;
25155;SDS011;21913;52.456;13.634;2023-04-24T22:28:48;4.13;;;2.08;;
25155;SDS011;21913;52.456;13.634;2023-04-24T22:33:51;4.07;;;2.05;;
25155;SDS011;21913;52.456;13.634;2023-04-24T22:38:53;4.50;;;2.20;;
25155;SDS011;21913;52.456;13.634;2023-04-24T22:43:54;4.90;;;2.28;;
25155;SDS011;21913;52.456;13.634;2023-04-24T22:48:56;4.95;;;2.08;;
25155;SDS011;21913;52.456;13.634;2023-04-24T22:53:58;4.82;;;2.00;;
25155;SDS011;21913;52.456;13.634;2023-04-24T22:59:02;4.25;;;2.20;;
25155;SDS011;21913;52.456;13.634;2023-04-24T23:04:03;3.00;;;1.95;;
25155;SDS011;21913;52.456;13.634;2023-04-24T23:09:05;4.50;;;2.38;;
25155;SDS011;21913;52.456;13.634;2023-04-24T23:14:06;3.50;;;2.05;;
25155;SDS011;21913;52.456;13.634;2023-04-24T23:19:08;3.70;;;2.13;;
25155;SDS011;21913;52.456;13.634;2023-04-24T23:24:10;5.15;;;2.47;;
25155;SDS011;21913;52.456;13.634;2023-04-24T23:29:11;3.53;;;2.05;;
25155;SDS011;21913;52.456;13.634;2023-04-24T23:34:13;5.90;;;2.55;;
25155;SDS011;21913;52.456;13.634;2023-04-24T23:39:14;3.70;;;2.22;;
25155;SDS011;21913;52.456;13.634;2023-04-24T23:44:16;4.32;;;2.47;;
25155;SDS011;21913;52.456;13.634;2023-04-24T23:49:17;4.53;;;2.40;;
25155;SDS011;21913;52.456;13.634;2023-04-24T23:54:19;5.28;;;2.53;;
25155;SDS011;21913;52.456;13.634;2023-04-24T23:59:20;4.38;;;2.42;;
